Pendleton, OR (97801)

21:44 PDT le 30 août 2015 (GMT -0700)
Sun Ridge Estates | | Change Station
CLOSE
Current Station
Stations météorologiques personnelles
Location: Pendleton, OR
Altitude: 1210 ft
Stations météo à proximité

Alt. 1210 ft 45.65 °N, 118.79 °W | Updated 9 minutes ago

Couvert
Couvert
63.2 ° F
Paraît 63.2 ° F
N
5.0
Vent Variable Vent de Ouest
Gusts 11.0 mph

Aujourd'hui
Haut(e) -- | Bas -- ° F
--% Risque de précip.
Hier
Haut(e) -- | Bas -- ° F
Precip. -- pouce
6:13 AM 7:36 PM
Pleine lune, 97% visible
Pression 30.00 pouce
Visibilité 10.0 Miles terrestres
Nuages Couvert 7000 ft
Point de rosée 45 ° F
Humidité 52%
Précipitations 0.09 pouce
Profondeur de la couche neigeuse Non disponible.
UV 0 sur 12
Pollen 2.40 sur 12
Qualité de l'air Non disponible.
Flu Activity Non disponible.
METAR KPDT 310353Z AUTO 27011KT 10SM OVC070 17/06 A3003 RMK AO2 SLP159 T01720061
Pression 30.00 pouce
Visibilité 10.0 Miles terrestres
Nuages Couvert 7000 ft
Point de rosée 45 ° F
Humidité 52%
Précipitations 0.09 pouce
Profondeur de la couche neigeuse Non disponible.
UV 0 sur 12
Pollen 2.40 sur 12
Qualité de l'air Non disponible.
Flu Activity Non disponible.
METAR KPDT 310353Z AUTO 27011KT 10SM OVC070 17/06 A3003 RMK AO2 SLP159 T01720061

10-Day Weather Forecast

×

Almanac

Astronomie

Aug. 30, 2015 Lever Coucher
Temps réel
Crépuscule civil
Crépuscule nautique
Crépuscule astronomique
Lune
Durée de lumière visible
Longueur du jour
Tomorrow will be .
, % of the Moon is Illuminated

Extrêmes aujourd'hui

State Highs State Lows

Community

WunderPhotos

Upload Photos

1,851,207 Photos téléchargées !

WunderBlogs® & News

Nearby

Qualité de l'air

  Qualité de l'air Indice de la qualité de l'air Polluant
Not available.

Épaisseur de neige

Station Depth Altitude

Activité sismique

Ville Distance Mag. Time & Date
Minimum magnitude displayed is 2.5.

Températures des eaux côtières

Lieu Température

Stations

Stations météo à proximité

Emplacement de la station Température Refroidissement éolien Point de rosée Humidité Vent Precip. Alt. Mise à jour Type